Time;durP1;ratioP1;P1;durP2;ratioP2;P2;SDS_P1;SDS_P2;PMS_P1;PMS_P2;Temp;Humidity;BMP_temperature;BMP_pressure;BME280_temperature;BME280_humidity;BME280_pressure;Samples;Min_cycle;Max_cycle;Signal;HPM_P1;HPM_P2
2022/03/06 00:00:33;;;;;;;36.75;24.95;;;6.70;99.90;;;6.04;67.15;102123.59;5095819;28;20090;-67
2022/03/06 00:03:04;;;;;;;40.22;25.60;;;6.70;99.90;;;6.85;67.21;102277.03;5095312;28;20409;-65
2022/03/06 00:05:34;;;;;;;38.63;24.65;;;6.70;99.90;;;6.86;67.15;102276.16;5095296;28;20121;-65
2022/03/06 00:08:03;;;;;;;38.83;24.23;;;6.70;99.90;;;6.84;67.36;102285.75;5095222;28;20040;-67
2022/03/06 00:10:33;;;;;;;;;;;6.70;99.90;;;6.82;67.29;102282.16;5077799;28;20067;-67
2022/03/06 00:13:02;;;;;;;35.58;23.83;;;6.70;99.90;;;6.80;67.49;102286.47;5094870;28;19973;-68
2022/03/06 00:15:31;;;;;;;42.00;26.05;;;6.60;99.90;;;6.68;67.20;102279.06;5076352;28;20044;-67
2022/03/06 00:17:59;;;;;;;39.38;24.45;;;6.50;99.90;;;6.64;67.75;102282.44;5094985;28;20035;-68
2022/03/06 00:20:28;;;;;;;39.83;25.20;;;6.50;99.90;;;6.34;67.38;102216.59;5095228;28;20044;-69
2022/03/06 00:22:57;;;;;;;44.55;27.13;;;6.50;99.90;;;6.77;67.49;102281.13;5094869;28;20048;-69
2022/03/06 00:25:26;;;;;;;43.92;26.23;;;6.60;99.90;;;6.68;67.30;102278.22;5094830;28;20109;-69
2022/03/06 00:27:54;;;;;;;38.72;24.70;;;6.50;99.90;;;6.69;67.40;102264.19;5094753;28;20455;-69
2022/03/06 00:30:23;;;;;;;39.25;25.33;;;6.60;99.90;;;6.35;67.43;102235.88;5076798;28;20072;-68
2022/03/06 00:32:52;;;;;;;37.88;25.08;;;6.50;99.90;;;6.47;67.46;102238.03;5094909;28;20040;-69
2022/03/06 00:35:22;;;;;;;35.83;24.88;;;6.50;99.90;;;6.61;67.35;102291.97;5094800;28;20445;-69
2022/03/06 00:37:50;;;;;;;38.07;25.03;;;6.50;99.90;;;6.61;67.52;102286.72;5094868;28;20044;-68
2022/03/06 00:40:20;;;;;;;38.30;24.92;;;6.50;99.90;;;6.57;67.50;102290.97;5094716;28;20308;-68
2022/03/06 00:42:48;;;;;;;35.72;23.20;;;6.50;99.90;;;6.58;67.55;102284.84;5094754;28;20052;-67
2022/03/06 00:45:17;;;;;;;37.15;25.30;;;6.40;99.90;;;6.52;67.44;102276.78;5094364;28;20048;-69
2022/03/06 00:47:45;;;;;;;39.28;24.70;;;6.50;99.90;;;6.45;67.94;102292.25;5094447;28;20048;-69
2022/03/06 00:50:14;;;;;;;38.40;24.80;;;6.30;99.90;;;6.46;67.70;102299.31;5094572;28;20067;-69
2022/03/06 00:52:43;;;;;;;39.03;24.63;;;6.30;99.90;;;6.27;67.85;102284.66;5094573;28;20044;-69
2022/03/06 00:55:13;;;;;;;38.22;23.83;;;6.20;99.90;;;6.25;68.09;102291.59;5094641;28;20133;-69
2022/03/06 00:57:43;;;;;;;36.78;24.70;;;6.20;99.90;;;6.28;68.40;102312.69;5094277;28;20044;-68
2022/03/06 01:00:12;;;;;;;42.55;25.88;;;6.10;99.90;;;6.31;68.34;102318.06;5094117;28;20455;-68
2022/03/06 01:02:41;;;;;;;40.28;25.45;;;6.10;99.90;;;6.06;68.51;102297.88;5094061;28;20052;-69
2022/03/06 01:05:10;;;;;;;35.65;24.08;;;6.10;99.90;;;6.25;68.31;102320.50;5094263;28;20383;-71
2022/03/06 01:07:39;;;;;;;38.27;24.47;;;6.10;99.90;;;6.27;68.30;102322.31;5094013;28;20508;-69
2022/03/06 01:10:09;;;;;;;38.08;24.00;;;6.10;99.90;;;6.28;68.44;102324.13;5093941;28;20044;-69
2022/03/06 01:12:38;;;;;;;36.33;24.05;;;6.10;99.90;;;6.28;68.39;102315.31;5093710;28;20413;-69
2022/03/06 01:15:09;;;;;;;34.92;23.50;;;6.10;99.90;;;6.22;68.07;102312.47;5075813;28;20563;-69
2022/03/06 01:17:37;;;;;;;36.38;24.20;;;6.10;99.90;;;6.20;68.36;102320.31;5094063;28;20459;-69
2022/03/06 01:20:08;;;;;;;36.20;24.07;;;6.10;99.90;;;6.20;68.69;102325.56;5093967;28;20040;-69
2022/03/06 01:22:36;;;;;;;36.38;24.15;;;6.00;99.90;;;6.16;68.78;102333.25;5094053;28;20077;-69
2022/03/06 01:25:06;;;;;;;35.10;23.70;;;6.00;99.90;;;6.12;68.93;102342.78;5093456;28;20458;-69
2022/03/06 01:27:35;;;;;;;36.40;23.23;;;6.00;99.90;;;6.17;68.46;102338.59;5093454;28;20052;-68
2022/03/06 01:30:06;;;;;;;33.23;24.20;;;6.00;99.90;;;6.20;68.49;102338.69;5093571;28;20042;-69
2022/03/06 01:32:37;;;;;;;34.87;23.40;;;6.00;99.90;;;6.21;68.37;102340.47;5093608;28;20097;-69
2022/03/06 01:35:07;;;;;;;39.03;24.90;;;6.10;99.90;;;5.96;68.31;102301.00;5093441;28;20074;-68
2022/03/06 01:37:35;;;;;;;35.15;24.02;;;6.10;99.90;;;6.05;68.55;102346.03;5075569;28;20058;-68
2022/03/06 01:40:06;;;;;;;36.43;24.50;;;5.90;99.90;;;6.09;69.06;102347.94;5093880;28;20071;-68
2022/03/06 01:42:35;;;;;;;36.05;23.02;;;5.90;99.90;;;6.09;68.63;102336.53;5093624;28;20048;-69
2022/03/06 01:45:06;;;;;;;37.93;24.67;;;5.90;99.90;;;5.97;68.79;102341.31;5093099;28;20052;-68
2022/03/06 01:47:39;;;;;;;34.05;24.08;;;5.90;99.90;;;5.96;69.25;102332.53;5093351;28;20052;-69
2022/03/06 01:50:13;;;;;;;38.03;25.13;;;5.90;99.90;;;6.04;69.20;102354.72;5093357;28;20047;-68
2022/03/06 01:52:43;;;;;;;37.43;24.57;;;5.80;99.90;;;5.95;69.30;102356.09;5093227;28;20044;-68
2022/03/06 01:55:12;;;;;;;37.35;25.30;;;5.80;99.90;;;5.80;69.25;102334.50;5093632;28;20044;-69
2022/03/06 01:57:43;;;;;;;39.75;25.85;;;5.80;99.90;;;5.22;69.64;102231.63;5075217;28;20040;-69
2022/03/06 02:00:15;;;;;;;36.70;24.90;;;5.80;99.90;;;5.80;69.81;102347.63;5093125;28;20036;-69
2022/03/06 02:02:45;;;;;;;39.07;26.60;;;5.70;99.90;;;5.83;69.87;102353.91;5093117;28;20036;-69
2022/03/06 02:05:14;;;;;;;37.65;26.13;;;5.70;99.90;;;5.64;70.20;102324.22;5093032;28;20413;-68
2022/03/06 02:07:43;;;;;;;38.60;25.40;;;5.70;99.90;;;5.69;70.65;102351.56;5092936;28;20457;-68
2022/03/06 02:10:14;;;;;;;37.93;25.67;;;5.60;99.90;;;5.61;70.88;102339.88;5092927;28;20460;-69
2022/03/06 02:12:43;;;;;;;39.72;26.60;;;5.60;99.90;;;5.62;71.16;102342.53;5092961;28;20139;-68
2022/03/06 02:15:14;;;;;;;36.97;25.43;;;5.50;99.90;;;5.65;71.08;102341.78;5093065;28;20119;-69
2022/03/06 02:17:45;;;;;;;39.53;27.33;;;5.60;99.90;;;5.58;70.98;102335.38;5093127;28;20180;-68
2022/03/06 02:20:16;;;;;;;38.28;27.52;;;5.50;99.90;;;5.59;71.32;102342.44;5092810;28;20051;-68
2022/03/06 02:22:48;;;;;;;40.10;26.53;;;5.50;99.90;;;5.49;71.59;102343.81;5092921;28;20657;-68
2022/03/06 02:25:19;;;;;;;38.23;28.40;;;5.40;99.90;;;5.44;71.46;102324.34;5093342;28;20044;-68
2022/03/06 02:27:49;;;;;;;43.20;27.43;;;5.40;99.90;;;5.57;71.94;102343.22;5092776;28;20521;-68
2022/03/06 02:30:22;;;;;;;39.30;27.23;;;5.40;99.90;;;5.60;71.63;102346.84;5093088;28;20427;-69
2022/03/06 02:32:52;;;;;;;39.50;27.60;;;5.50;99.90;;;5.61;71.34;102343.41;5093308;28;20044;-70
2022/03/06 02:35:22;;;;;;;42.33;29.33;;;5.50;99.90;;;5.64;71.51;102345.22;5093026;28;20048;-69
2022/03/06 02:37:52;;;;;;;37.57;27.27;;;5.50;99.90;;;5.58;71.67;102350.22;5094516;28;20085;-68
2022/03/06 02:40:21;;;;;;;40.60;27.55;;;5.50;99.90;;;5.40;71.62;102309.31;5097174;28;20278;-68
2022/03/06 02:42:53;;;;;;;44.20;29.70;;;5.50;99.90;;;5.72;71.21;102355.19;5097218;28;20071;-68
2022/03/06 02:45:24;;;;;;;38.80;27.10;;;5.60;99.90;;;5.70;71.50;102348.09;5097384;28;20094;-70
2022/03/06 02:47:55;;;;;;;42.67;28.30;;;5.60;99.90;;;5.70;71.64;102356.88;5096685;28;20048;-68
2022/03/06 02:50:26;;;;;;;41.83;29.13;;;5.60;99.90;;;5.76;71.38;102357.09;5096903;28;20444;-68
2022/03/06 02:53:00;;;;;;;39.00;28.20;;;5.60;99.90;;;5.76;70.97;102362.34;5096975;28;20056;-69
2022/03/06 02:55:29;;;;;;;44.77;29.47;;;5.60;99.90;;;5.72;71.05;102349.03;5096591;28;20048;-68
2022/03/06 02:57:58;;;;;;;38.67;27.07;;;5.60;99.90;;;5.79;71.07;102356.34;5078756;28;20465;-70
2022/03/06 03:00:27;;;;;;;38.40;28.83;;;5.60;99.90;;;5.69;71.01;102346.31;5078583;28;20047;-68
2022/03/06 03:02:56;;;;;;;41.07;29.27;;;5.70;99.90;;;5.72;71.07;102357.81;5096726;28;20051;-68
2022/03/06 03:05:25;;;;;;;40.57;28.10;;;5.60;99.90;;;5.83;71.26;102359.16;5078545;28;20067;-68
2022/03/06 03:07:55;;;;;;;41.63;28.80;;;5.60;99.90;;;5.77;71.00;102358.00;5096846;28;20052;-68
2022/03/06 03:10:26;;;;;;;40.00;28.50;;;5.70;99.90;;;5.83;70.97;102371.34;5096620;28;20048;-69
2022/03/06 03:12:56;;;;;;;37.00;28.33;;;5.70;99.90;;;5.82;71.27;102365.22;5096478;28;20076;-69
2022/03/06 03:15:24;;;;;;;41.33;29.88;;;5.70;99.90;;;5.65;71.34;102342.69;5096191;28;20471;-69
2022/03/06 03:17:53;;;;;;;40.90;29.23;;;5.70;99.90;;;5.85;71.44;102370.63;5078097;28;20409;-69
2022/03/06 03:20:21;;;;;;;41.77;28.73;;;5.70;99.90;;;5.73;71.42;102354.34;5096044;28;20478;-69
2022/03/06 03:22:50;;;;;;;41.90;30.70;;;5.70;99.90;;;5.92;71.37;102380.50;5096203;28;20044;-69
2022/03/06 03:25:19;;;;;;;42.77;31.17;;;5.80;99.90;;;6.03;71.02;102375.69;5095937;28;20562;-69
2022/03/06 03:27:48;;;;;;;39.22;28.75;;;5.80;99.90;;;6.00;70.85;102381.69;5095957;28;20046;-69
2022/03/06 03:30:16;;;;;;;40.63;29.25;;;5.90;99.90;;;6.05;70.82;102376.63;5096169;28;20044;-68
2022/03/06 03:32:45;;;;;;;41.97;30.90;;;5.90;99.90;;;6.14;70.96;102377.88;5096137;28;20068;-69
2022/03/06 03:35:13;;;;;;;38.28;29.67;;;6.00;99.90;;;6.01;70.74;102372.09;5096018;28;20460;-68
2022/03/06 03:37:41;;;;;;;41.57;30.77;;;6.00;99.90;;;5.93;71.05;102355.16;5095588;28;20115;-68
2022/03/06 03:40:12;;;;;;;40.63;30.37;;;5.90;99.90;;;6.04;70.66;102380.13;5096012;28;20090;-69
2022/03/06 03:42:42;;;;;;;38.50;28.83;;;5.90;99.90;;;5.96;70.51;102382.41;5095672;28;20555;-69
2022/03/06 03:45:10;;;;;;;37.42;28.25;;;5.90;99.90;;;5.95;70.83;102366.59;5095851;28;20126;-69
2022/03/06 03:47:39;;;;;;;38.13;29.90;;;5.90;99.90;;;6.01;70.51;102374.72;5095596;28;20044;-69
2022/03/06 03:50:09;;;;;;;43.83;31.50;;;5.90;99.90;;;6.00;69.91;102379.06;5094396;28;20406;-69
2022/03/06 03:52:38;;;;;;;38.45;28.88;;;5.90;99.90;;;5.98;70.25;102378.13;5095567;28;20040;-69
2022/03/06 03:55:07;;;;;;;37.77;28.73;;;5.90;99.90;;;6.00;70.07;102388.72;5095444;28;20151;-68
2022/03/06 03:57:36;;;;;;;38.67;29.60;;;5.80;99.90;;;5.84;69.91;102378.44;5095268;28;20518;-68
2022/03/06 04:00:08;;;;;;;39.80;30.30;;;5.80;99.90;;;5.98;69.86;102386.00;5095283;28;20485;-68
2022/03/06 04:02:37;;;;;;;38.50;29.87;;;5.80;99.90;;;5.93;69.85;102392.81;5095629;28;20044;-68
2022/03/06 04:05:07;;;;;;;38.63;29.03;;;5.80;99.90;;;5.93;69.68;102390.19;5095476;28;20044;-68
2022/03/06 04:07:35;;;;;;;35.00;28.20;;;5.80;99.90;;;5.86;69.86;102388.19;5095360;28;20074;-68
2022/03/06 04:10:05;;;;;;;36.53;30.37;;;5.70;99.90;;;5.83;69.49;102394.97;5095007;28;20759;-69
2022/03/06 04:12:33;;;;;;;38.07;29.53;;;5.70;99.90;;;5.73;69.35;102380.59;5094853;28;20052;-70
2022/03/06 04:15:02;;;;;;;38.53;29.40;;;5.70;99.90;;;5.85;69.31;102386.38;5095014;28;20581;-68
2022/03/06 04:17:32;;;;;;;38.23;29.53;;;5.70;99.90;;;5.79;69.49;102380.84;5095185;28;20044;-68
2022/03/06 04:20:00;;;;;;;35.67;27.27;;;5.70;99.90;;;5.73;69.80;102367.47;5095118;28;20075;-69
2022/03/06 04:22:28;;;;;;;40.70;29.67;;;5.70;99.90;;;5.83;69.64;102382.78;5095156;28;20036;-68
2022/03/06 04:24:57;;;;;;;41.47;30.87;;;5.70;99.90;;;5.64;69.80;102364.50;5076922;28;20371;-69
2022/03/06 04:27:25;;;;;;;37.73;28.33;;;5.70;99.90;;;5.83;69.75;102395.91;5095011;28;20136;-69
2022/03/06 04:29:54;;;;;;;36.97;30.73;;;5.70;99.90;;;5.79;69.84;102393.97;5095063;28;20042;-69
2022/03/06 04:32:23;;;;;;;36.90;28.47;;;5.70;99.90;;;5.73;69.42;102372.72;5095020;28;20484;-69
2022/03/06 04:34:53;;;;;;;35.83;28.30;;;5.70;99.90;;;4.29;69.59;102132.69;5094644;28;20565;-69
2022/03/06 04:37:24;;;;;;;37.47;29.38;;;5.70;99.90;;;3.68;69.37;102013.19;5095102;28;20048;-69
2022/03/06 04:39:52;;;;;;;36.23;29.20;;;5.70;99.90;;;5.88;69.81;102411.84;5094609;28;20043;-69
2022/03/06 04:42:21;;;;;;;37.50;30.47;;;5.70;99.90;;;4.82;69.36;102221.28;5094485;28;20086;-69
2022/03/06 04:44:49;;;;;;;37.40;29.93;;;5.70;99.90;;;5.94;69.33;102422.59;5094403;28;20432;-68
2022/03/06 04:47:18;;;;;;;36.13;27.60;;;5.80;99.90;;;6.00;69.30;102413.22;5094368;28;20572;-69
2022/03/06 04:49:46;;;;;;;39.40;30.43;;;5.80;99.90;;;5.97;69.04;102421.00;5094899;28;20048;-70
2022/03/06 04:52:16;;;;;;;37.80;29.10;;;5.80;99.90;;;5.67;68.73;102371.59;5094750;28;20051;-69
2022/03/06 04:54:44;;;;;;;36.83;28.85;;;5.80;99.90;;;3.80;69.24;102044.19;5094278;28;20039;-69
2022/03/06 04:57:14;;;;;;;36.30;29.17;;;5.70;99.90;;;5.74;69.02;102413.91;5094369;28;20044;-69
2022/03/06 04:59:42;;;;;;;36.40;28.57;;;5.70;99.90;;;5.53;68.97;102397.31;5094504;28;20091;-69
2022/03/06 05:02:11;;;;;;;35.40;27.50;;;5.70;99.90;;;5.85;68.71;102431.00;5094303;28;20072;-69
2022/03/06 05:04:39;;;;;;;33.20;26.73;;;5.70;99.90;;;5.88;68.45;102435.50;5094027;28;20489;-68
2022/03/06 05:07:08;;;;;;;36.30;29.23;;;5.70;99.90;;;4.61;68.76;102223.03;5094259;28;20044;-69
2022/03/06 05:09:37;;;;;;;36.67;28.73;;;5.70;99.90;;;5.58;68.91;102403.63;5093908;28;20048;-69
2022/03/06 05:12:08;;;;;;;33.00;27.25;;;5.70;99.90;;;5.74;68.70;102442.78;5076033;28;20044;-68
2022/03/06 05:14:37;;;;;;;33.55;26.30;;;5.60;99.90;;;5.55;68.91;102395.63;5094331;28;20105;-69
2022/03/06 05:17:05;;;;;;;33.73;27.70;;;5.60;99.90;;;5.21;68.51;102347.84;5075786;28;20499;-68
2022/03/06 05:19:34;;;;;;;38.27;28.57;;;5.50;99.90;;;5.74;68.86;102444.50;5093778;28;20052;-69
2022/03/06 05:22:02;;;;;;;35.47;28.07;;;5.50;99.90;;;5.76;68.45;102450.72;5093741;28;20562;-69
2022/03/06 05:24:31;;;;;;;35.37;29.07;;;5.50;99.90;;;5.58;68.49;102406.25;5093714;28;20047;-68
2022/03/06 05:27:00;;;;;;;37.13;27.77;;;5.60;99.90;;;5.30;67.93;102349.13;5093647;28;20044;-69
2022/03/06 05:29:29;;;;;;;35.30;26.63;;;5.70;99.90;;;5.74;68.43;102440.16;5094182;28;20068;-68
2022/03/06 05:31:57;;;;;;;33.77;27.20;;;5.60;99.90;;;5.72;67.99;102438.28;5093520;28;20068;-69
2022/03/06 05:34:26;;;;;;;33.83;26.77;;;5.60;99.90;;;5.81;68.10;102452.69;5094137;28;20048;-68
2022/03/06 05:36:54;;;;;;;34.53;26.87;;;5.60;99.90;;;5.79;68.16;102438.59;5093331;28;20542;-69
2022/03/06 05:39:22;;;;;;;33.77;27.10;;;5.60;99.90;;;5.75;68.01;102457.69;5093647;28;20447;-69
2022/03/06 05:41:51;;;;;;;34.43;27.07;;;5.60;99.90;;;5.78;67.80;102462.16;5093606;28;20126;-68
2022/03/06 05:44:21;;;;;;;32.97;26.03;;;5.60;99.90;;;5.81;67.79;102465.81;5093578;28;20134;-68
2022/03/06 05:46:50;;;;;;;33.67;27.30;;;5.60;99.90;;;5.75;67.83;102465.56;5093414;28;20109;-68
2022/03/06 05:49:18;;;;;;;34.47;25.90;;;5.50;99.90;;;5.73;67.87;102456.72;5093349;28;20040;-69
2022/03/06 05:51:47;;;;;;;32.63;25.50;;;5.60;99.90;;;5.75;67.86;102465.56;5093191;28;20101;-69
2022/03/06 05:54:15;;;;;;;31.00;25.50;;;5.60;99.90;;;5.80;67.35;102479.78;5093223;28;20124;-68
2022/03/06 05:56:44;;;;;;;32.53;25.23;;;5.60;99.90;;;5.77;67.30;102476.16;5093292;28;20117;-69
2022/03/06 05:59:15;;;;;;;32.47;26.73;;;5.60;99.90;;;5.71;67.41;102478.53;5093241;28;20046;-68
2022/03/06 06:01:44;;;;;;;;;;;5.60;99.90;;;5.70;67.68;102485.50;5093968;28;20040;-69
2022/03/06 06:04:13;;;;;;;32.40;24.17;;;5.60;99.90;;;5.71;67.78;102489.88;5093336;28;19927;-69
2022/03/06 06:06:42;;;;;;;32.37;23.67;;;5.50;99.90;;;5.74;67.53;102483.88;5092967;28;20086;-69
2022/03/06 06:09:10;;;;;;;31.37;23.77;;;5.50;99.90;;;5.65;67.44;102489.66;5093335;28;20055;-69
2022/03/06 06:11:38;;;;;;;30.23;24.13;;;5.50;99.90;;;5.50;67.63;102471.53;5092442;28;20055;-69
2022/03/06 06:14:07;;;;;;;31.43;24.77;;;5.40;99.90;;;5.65;67.23;102499.25;5092971;28;20135;-68
2022/03/06 06:16:35;;;;;;;29.10;24.27;;;5.50;99.90;;;5.56;67.74;102501.47;5092902;28;20135;-68
2022/03/06 06:19:06;;;;;;;31.75;24.08;;;5.40;99.90;;;5.52;67.55;102503.09;5092693;28;20502;-69
2022/03/06 06:21:35;;;;;;;29.17;22.53;;;5.40;99.90;;;5.41;67.42;102491.25;5092884;28;20101;-71
2022/03/06 06:24:04;;;;;;;32.20;23.47;;;5.30;99.90;;;5.57;67.91;102512.06;5074924;28;20052;-69
2022/03/06 06:26:32;;;;;;;31.93;23.17;;;5.40;99.90;;;5.64;67.27;102516.72;5074935;28;20071;-69
2022/03/06 06:29:01;;;;;;;28.00;22.07;;;5.40;99.90;;;5.59;67.46;102522.63;5093044;28;20491;-69
2022/03/06 06:31:30;;;;;;;28.80;24.53;;;5.40;99.90;;;5.54;67.21;102511.91;5092840;28;20094;-69
2022/03/06 06:33:59;;;;;;;28.60;22.53;;;5.40;99.90;;;5.56;67.59;102515.50;5092506;28;20048;-68
2022/03/06 06:36:28;;;;;;;26.33;22.90;;;5.40;99.90;;;5.68;67.10;102526.53;5092674;28;20048;-69
2022/03/06 06:39:00;;;;;;;26.95;21.35;;;5.50;99.90;;;5.78;67.38;102533.06;5092889;28;20078;-68
2022/03/06 06:41:28;;;;;;;26.13;22.87;;;5.50;99.90;;;5.95;67.16;102527.69;5092931;28;20048;-68
2022/03/06 06:43:56;;;;;;;24.40;21.27;;;5.70;99.90;;;5.89;66.28;102490.69;5092514;28;20486;-68
2022/03/06 06:46:28;;;;;;;27.63;21.48;;;5.80;99.90;;;6.13;66.09;102510.06;5092537;28;20126;-69
2022/03/06 06:48:56;;;;;;;28.70;21.85;;;6.00;99.90;;;6.43;65.40;102527.88;5092547;28;20098;-69
2022/03/06 06:51:25;;;;;;;26.52;22.38;;;6.20;99.90;;;6.47;65.14;102519.25;5074536;28;20048;-68
2022/03/06 06:53:54;;;;;;;25.20;20.98;;;6.20;99.90;;;6.53;65.07;102533.53;5092371;28;20037;-68
2022/03/06 06:56:25;;;;;;;28.67;22.00;;;6.30;99.90;;;6.69;64.57;102535.00;5092930;28;20457;-68
2022/03/06 06:58:54;;;;;;;25.00;20.42;;;6.50;99.90;;;6.84;63.90;102544.38;5092390;28;20062;-68
2022/03/06 07:01:22;;;;;;;24.05;20.17;;;6.60;99.90;;;6.92;63.44;102557.81;5092365;28;20072;-68
2022/03/06 07:03:51;;;;;;;24.33;21.35;;;6.70;99.90;;;7.11;63.29;102566.44;5092443;28;20853;-68
2022/03/06 07:06:19;;;;;;;25.95;20.13;;;6.90;99.90;;;7.24;62.54;102559.88;5074477;28;20071;-68
2022/03/06 07:08:47;;;;;;;23.10;19.45;;;7.00;99.90;;;7.39;62.10;102567.44;5092655;28;20044;-68
2022/03/06 07:11:23;;;;;;;22.83;19.75;;;7.10;99.90;;;7.42;61.65;102571.06;5092383;28;20550;-69
2022/03/06 07:13:51;;;;;;;24.45;19.85;;;7.20;99.90;;;7.57;61.60;102573.38;5092579;28;20056;-68
2022/03/06 07:16:20;;;;;;;22.55;18.30;;;7.30;99.90;;;7.64;60.56;102568.38;5092616;28;20036;-68
2022/03/06 07:18:48;;;;;;;26.45;18.90;;;7.40;99.90;;;7.79;60.60;102570.59;5092477;28;20036;-69
2022/03/06 07:21:17;;;;;;;20.48;17.60;;;7.60;99.90;;;7.88;60.01;102576.19;5092732;28;20051;-68
2022/03/06 07:23:45;;;;;;;21.33;17.35;;;7.70;99.90;;;7.93;59.50;102575.53;5094238;28;20122;-68
2022/03/06 07:26:14;;;;;;;20.40;16.67;;;7.70;99.90;;;7.96;59.59;102549.25;5095830;28;20044;-70
2022/03/06 07:28:43;;;;;;;20.33;16.15;;;8.00;99.90;;;8.27;58.90;102580.19;5096082;28;20070;-68
2022/03/06 07:31:12;;;;;;;22.00;15.33;;;8.10;99.90;;;8.27;58.31;102561.72;5096366;28;20044;-68
2022/03/06 07:33:40;;;;;;;20.10;15.80;;;8.30;99.90;;;8.53;57.86;102579.28;5095747;28;20282;-68
2022/03/06 07:36:09;;;;;;;20.45;14.80;;;8.40;99.90;;;8.55;56.82;102596.03;5095950;28;20105;-68
2022/03/06 07:38:37;;;;;;;18.50;14.38;;;8.40;99.90;;;8.51;57.41;102593.25;5077660;28;20134;-67
2022/03/06 07:41:06;;;;;;;18.75;14.55;;;8.40;99.90;;;8.27;56.43;102500.19;5095596;28;20043;-68
2022/03/06 07:43:35;;;;;;;18.65;14.45;;;8.60;99.90;;;8.97;55.97;102600.00;5095572;28;20044;-68
2022/03/06 07:46:05;;;;;;;16.92;13.25;;;8.80;99.90;;;9.18;55.83;102606.72;5095670;28;20036;-68
2022/03/06 07:48:34;;;;;;;16.98;12.95;;;9.00;99.90;;;9.24;54.90;102607.81;5096271;28;20876;-68
2022/03/06 07:51:03;;;;;;;16.13;12.90;;;9.10;99.90;;;9.21;54.80;102594.53;5095507;28;20044;-68
2022/03/06 07:53:31;;;;;;;16.48;13.25;;;9.10;99.90;;;9.40;54.63;102604.78;5095294;28;20439;-68
2022/03/06 07:56:00;;;;;;;13.95;11.73;;;9.20;99.90;;;9.66;54.12;102602.81;5077546;28;20044;-68
2022/03/06 07:58:28;;;;;;;15.27;12.00;;;9.50;99.90;;;9.31;53.56;102566.66;5095820;28;20478;-68
2022/03/06 08:00:56;;;;;;;14.73;11.52;;;9.50;99.90;;;9.59;53.71;102617.63;5095279;28;20389;-68
2022/03/06 08:03:27;;;;;;;14.07;12.60;;;9.40;99.90;;;9.76;53.22;102626.00;5095494;28;20135;-68
2022/03/06 08:05:55;;;;;;;15.20;12.05;;;9.60;99.90;;;10.04;52.86;102618.84;5077197;28;20051;-68
2022/03/06 08:08:24;;;;;;;12.48;11.15;;;9.80;99.90;;;10.30;52.06;102627.47;5077243;28;20138;-68
2022/03/06 08:10:58;;;;;;;15.30;11.93;;;10.10;99.90;;;10.44;51.59;102598.72;5095104;28;20048;-68
2022/03/06 08:13:26;;;;;;;15.15;11.20;;;10.40;99.90;;;10.96;50.99;102635.19;5094835;28;20451;-70
2022/03/06 08:15:55;;;;;;;13.52;10.90;;;10.70;99.90;;;11.08;50.00;102639.03;5095269;28;20470;-68
2022/03/06 08:18:23;;;;;;;13.70;11.02;;;10.90;99.90;;;11.07;49.55;102641.66;5095334;28;20048;-68
2022/03/06 08:20:53;;;;;;;12.45;10.80;;;10.90;99.90;;;11.17;49.52;102628.63;5094916;28;20875;-68
2022/03/06 08:23:21;;;;;;;13.60;10.13;;;11.00;99.90;;;11.02;49.35;102638.88;5095141;28;20048;-68
2022/03/06 08:25:50;;;;;;;13.57;10.75;;;10.90;99.90;;;11.10;49.17;102637.31;5095056;28;20233;-73
2022/03/06 08:28:18;;;;;;;12.32;11.02;;;11.00;99.90;;;11.41;48.87;102645.03;5094746;28;20044;-69
2022/03/06 08:30:47;;;;;;;11.57;10.32;;;11.20;99.90;;;11.32;48.59;102644.88;5094827;28;20549;-68
2022/03/06 08:33:15;;;;;;;11.88;10.57;;;11.20;99.90;;;11.13;48.22;102641.78;5094647;28;20048;-69
2022/03/06 08:35:44;;;;;;;13.93;10.75;;;11.00;99.90;;;11.18;47.75;102656.91;5093989;28;20071;-70
2022/03/06 08:38:19;;;;;;;11.90;9.90;;;11.10;99.90;;;10.56;48.49;102655.47;5094823;28;20046;-73
2022/03/06 08:40:47;;;;;;;13.10;10.83;;;10.50;99.90;;;10.91;47.51;102645.72;5094546;28;20036;-72
2022/03/06 08:43:16;;;;;;;11.48;9.95;;;10.70;99.90;;;11.08;47.55;102652.28;5094240;28;20832;-70
2022/03/06 08:45:44;;;;;;;12.20;10.55;;;10.80;99.90;;;11.05;47.27;102617.78;5094991;28;20542;-72
2022/03/06 08:48:13;;;;;;;16.25;10.45;;;11.00;99.90;;;11.11;46.82;102646.16;5076334;28;20040;-71
2022/03/06 08:50:41;;;;;;;13.70;10.50;;;11.00;99.90;;;11.04;45.93;102607.13;5094327;28;20055;-74
2022/03/06 08:53:10;;;;;;;13.70;9.60;;;11.10;99.90;;;10.35;45.79;102656.69;5076240;28;20405;-71
2022/03/06 08:55:39;;;;;;;13.13;10.65;;;10.50;99.90;;;10.12;46.48;102639.34;5094228;28;20043;-72
2022/03/06 08:58:08;;;;;;;11.93;9.93;;;10.10;99.90;;;9.81;46.39;102619.13;5094043;28;20071;-70
2022/03/06 09:00:36;;;;;;;14.60;10.88;;;9.90;99.90;;;9.94;46.03;102635.34;5093973;28;20067;-72
2022/03/06 09:03:05;;;;;;;12.85;9.98;;;9.90;99.90;;;9.84;46.73;102620.09;5094031;28;20599;-72
2022/03/06 09:05:40;;;;;;;12.75;10.38;;;9.80;99.90;;;9.80;46.83;102649.91;5094787;28;20055;-72
2022/03/06 09:08:10;;;;;;;13.40;10.27;;;9.80;99.90;;;9.91;46.63;102650.22;5094117;28;20493;-70
2022/03/06 09:10:41;;;;;;;13.30;9.67;;;9.70;99.90;;;10.02;46.80;102635.53;5094030;28;20043;-72
2022/03/06 09:13:10;;;;;;;11.90;9.95;;;9.80;99.90;;;9.98;47.18;102649.53;5093986;28;20044;-72
2022/03/06 09:15:38;;;;;;;13.10;10.27;;;9.80;99.90;;;10.18;46.38;102652.72;5093882;28;20068;-73
2022/03/06 09:18:10;;;;;;;11.38;10.15;;;10.00;99.90;;;9.89;46.24;102649.28;5093872;28;20060;-72
2022/03/06 09:20:38;;;;;;;12.43;10.05;;;9.80;99.90;;;9.80;46.07;102638.44;5093942;28;20070;-72
2022/03/06 09:23:09;;;;;;;11.05;9.85;;;9.70;99.90;;;9.90;45.96;102645.78;5093585;28;20048;-73
2022/03/06 09:25:39;;;;;;;10.38;9.30;;;9.70;99.90;;;10.06;46.12;102658.56;5094134;28;20040;-73
2022/03/06 09:28:07;;;;;;;11.55;9.55;;;9.80;99.90;;;10.26;45.80;102656.47;5094181;28;20131;-73
2022/03/06 09:30:36;;;;;;;11.02;8.63;;;10.00;99.90;;;10.00;45.41;102654.00;5093423;28;20101;-69
2022/03/06 09:33:05;;;;;;;10.10;8.82;;;10.00;99.90;;;10.07;45.65;102662.06;5093621;28;20107;-69
2022/03/06 09:35:34;;;;;;;10.60;9.48;;;9.90;99.90;;;9.99;45.50;102633.69;5093087;28;20131;-71
2022/03/06 09:38:02;;;;;;;13.50;9.35;;;9.90;99.90;;;9.93;45.67;102659.97;5093117;28;20044;-72
2022/03/06 09:40:31;;;;;;;10.70;9.48;;;9.80;99.90;;;9.68;45.58;102632.81;5093031;28;20036;-70
2022/03/06 09:43:01;;;;;;;9.73;8.73;;;9.70;99.90;;;9.75;45.24;102619.84;5093168;28;20098;-71
2022/03/06 09:45:34;;;;;;;10.30;8.43;;;9.80;99.90;;;9.77;45.44;102601.38;5093076;28;20493;-71
2022/03/06 09:48:03;;;;;;;12.15;9.15;;;9.80;99.90;;;9.90;45.05;102644.03;5092766;28;20058;-70
2022/03/06 09:50:32;;;;;;;10.43;8.52;;;9.90;99.90;;;9.54;46.17;102645.66;5093082;28;20078;-70
2022/03/06 09:53:01;;;;;;;10.90;9.30;;;9.50;99.90;;;9.82;45.68;102658.78;5093430;28;20109;-68
2022/03/06 09:55:31;;;;;;;9.52;8.32;;;9.70;99.90;;;9.96;45.40;102651.22;5093117;28;20048;-68
2022/03/06 09:58:00;;;;;;;10.40;8.77;;;9.80;99.90;;;9.25;45.63;102638.66;5093002;28;20040;-68
2022/03/06 10:00:35;;;;;;;11.05;8.93;;;9.40;99.90;;;9.83;45.59;102651.75;5093214;28;20050;-68
2022/03/06 10:03:04;;;;;;;10.38;8.80;;;9.60;99.90;;;9.86;45.83;102643.91;5092946;28;20036;-69
2022/03/06 10:05:36;;;;;;;10.10;8.90;;;9.70;99.90;;;10.31;44.88;102661.00;5093680;28;20064;-66
2022/03/06 10:08:25;;;;;;;11.27;9.68;;;10.10;99.90;;;10.27;45.06;102639.72;5093163;28;20500;-67
2022/03/06 10:10:57;;;;;;;10.27;8.85;;;10.20;99.90;;;10.48;44.49;102659.69;5075113;28;20056;-67
2022/03/06 10:13:31;;;;;;;11.13;8.50;;;10.30;99.90;;;10.85;44.50;102650.84;5092727;28;20060;-68
2022/03/06 10:16:11;;;;;;;10.95;9.60;;;10.60;99.90;;;10.70;44.04;102616.09;5093556;28;20056;-68
2022/03/06 10:18:42;;;;;;;10.23;8.75;;;10.80;99.90;;;10.90;44.00;102641.25;5092814;28;20044;-68
2022/03/06 10:21:22;;;;;;;11.25;9.13;;;10.90;99.90;;;11.26;44.17;102665.94;5092441;28;20044;-68